createdAt,value
2023-01-13T00:00:15.594Z,93.66
2023-01-13T00:02:42.457Z,92.09
2023-01-13T00:05:10.311Z,92.23
2023-01-13T00:07:40.137Z,92.37
2023-01-13T00:10:11.346Z,92.10
2023-01-13T00:12:41.518Z,90.98
2023-01-13T00:15:09.209Z,90.82
2023-01-13T00:17:36.121Z,90.49
2023-01-13T00:20:03.143Z,90.72
2023-01-13T00:22:29.850Z,90.45
2023-01-13T00:24:58.252Z,90.04
2023-01-13T00:27:25.379Z,90.27
2023-01-13T00:29:52.328Z,89.99
2023-01-13T00:32:19.039Z,90.23
2023-01-13T00:34:45.888Z,89.30
2023-01-13T00:37:15.764Z,90.18
2023-01-13T00:39:42.516Z,89.93
2023-01-13T00:42:28.740Z,89.76
2023-01-13T00:44:55.504Z,89.49
2023-01-13T00:47:23.405Z,89.58
2023-01-13T00:49:50.227Z,90.51
2023-01-13T00:52:16.968Z,90.34
2023-01-13T00:54:43.795Z,90.32
2023-01-13T00:57:10.626Z,90.32
2023-01-13T00:59:37.319Z,90.61
2023-01-13T01:02:04.164Z,90.39
2023-01-13T01:04:31.260Z,90.61
2023-01-13T01:06:58.126Z,90.73
2023-01-13T01:09:32.532Z,91.20
2023-01-13T01:12:00.320Z,90.39
2023-01-13T01:14:27.337Z,90.97
2023-01-13T01:16:54.737Z,90.51
2023-01-13T01:19:21.548Z,90.15
2023-01-13T01:21:49.080Z,90.35
2023-01-13T01:24:16.771Z,90.48
2023-01-13T01:26:43.624Z,89.91
2023-01-13T01:29:14.572Z,89.14
2023-01-13T01:31:41.305Z,90.20
2023-01-13T01:34:08.102Z,90.52
2023-01-13T01:36:36.313Z,90.90
2023-01-13T01:39:04.276Z,91.20
2023-01-13T01:41:33.091Z,90.48
2023-01-13T01:44:04.498Z,90.66
2023-01-13T01:46:41.353Z,90.75
2023-01-13T01:49:11.062Z,90.99
2023-01-13T01:51:55.176Z,91.19
2023-01-13T01:54:30.564Z,91.20
2023-01-13T01:56:57.561Z,90.65
2023-01-13T01:59:28.209Z,90.85
2023-01-13T02:01:57.266Z,91.37
2023-01-13T02:04:31.128Z,91.06
2023-01-13T02:06:58.152Z,90.96
2023-01-13T02:09:25.540Z,91.36
2023-01-13T02:12:10.716Z,91.67
2023-01-13T02:14:38.207Z,91.46
2023-01-13T02:17:26.746Z,91.28
2023-01-13T02:20:21.521Z,91.38
2023-01-13T02:24:00.346Z,91.67
2023-01-13T02:27:01.239Z,91.44
2023-01-13T02:30:20.936Z,91.54
2023-01-13T02:33:22.279Z,91.58
2023-01-13T02:35:50.928Z,91.53
2023-01-13T02:38:29.135Z,92.18
2023-01-13T02:41:33.787Z,91.77
2023-01-13T02:44:08.995Z,91.60
2023-01-13T02:47:20.339Z,92.98
2023-01-13T02:49:48.370Z,92.63
2023-01-13T02:52:43.018Z,92.71
2023-01-13T02:55:14.221Z,91.93
2023-01-13T02:57:42.470Z,91.06
2023-01-13T03:00:11.562Z,90.62
2023-01-13T03:02:38.800Z,90.88
2023-01-13T03:05:06.286Z,90.47
2023-01-13T03:07:55.720Z,90.36
2023-01-13T03:10:50.076Z,89.99
2023-01-13T03:13:53.860Z,89.34
2023-01-13T03:16:48.084Z,89.44
2023-01-13T03:19:17.648Z,89.58
2023-01-13T03:21:53.769Z,89.62
2023-01-13T03:24:24.700Z,89.89
2023-01-13T03:27:13.035Z,90.04
2023-01-13T03:30:18.521Z,90.11
2023-01-13T03:32:55.999Z,89.99
2023-01-13T03:35:37.152Z,90.07
2023-01-13T03:38:11.355Z,89.80
2023-01-13T03:40:45.668Z,90.40
2023-01-13T03:43:34.718Z,90.80
2023-01-13T03:46:07.361Z,90.05
2023-01-13T03:48:36.181Z,90.01
2023-01-13T03:51:07.507Z,89.31
2023-01-13T03:53:37.959Z,89.78
2023-01-13T03:56:12.972Z,89.62
2023-01-13T03:58:42.839Z,89.67
2023-01-13T04:01:25.319Z,89.86
2023-01-13T04:03:59.572Z,90.09
2023-01-13T04:06:29.281Z,89.36
2023-01-13T04:09:02.212Z,89.63
2023-01-13T04:11:33.730Z,89.19
2023-01-13T04:14:02.065Z,89.09
2023-01-13T04:16:28.962Z,88.90
2023-01-13T04:18:55.762Z,88.64
2023-01-13T04:21:22.508Z,88.37
2023-01-13T04:23:51.516Z,88.07
2023-01-13T04:26:19.881Z,88.13
2023-01-13T04:28:46.870Z,88.76
2023-01-13T04:31:13.758Z,88.52
2023-01-13T04:33:40.710Z,88.66
2023-01-13T04:36:07.760Z,88.97
2023-01-13T04:38:34.561Z,89.09
2023-01-13T04:41:01.361Z,88.72
2023-01-13T04:43:28.223Z,88.69
2023-01-13T04:45:55.108Z,89.22
2023-01-13T04:48:21.945Z,88.21
2023-01-13T04:50:48.680Z,88.33
2023-01-13T04:53:15.645Z,87.73
2023-01-13T04:55:44.356Z,87.89
2023-01-13T04:58:11.405Z,88.24
2023-01-13T05:00:38.437Z,87.84
2023-01-13T05:03:05.319Z,88.02
2023-01-13T05:05:32.171Z,88.53
2023-01-13T05:07:58.994Z,89.11
2023-01-13T05:10:26.627Z,89.55
2023-01-13T05:13:11.985Z,91.13
2023-01-13T05:15:59.459Z,92.20
2023-01-13T05:18:26.551Z,91.24
2023-01-13T05:20:53.391Z,92.67
2023-01-13T05:23:38.852Z,92.79
2023-01-13T05:26:06.059Z,93.01
2023-01-13T05:28:33.987Z,94.09
2023-01-13T05:31:00.951Z,94.78
2023-01-13T05:33:27.774Z,95.16
2023-01-13T05:35:54.532Z,94.78
2023-01-13T05:38:21.774Z,94.85
2023-01-13T05:41:07.204Z,94.80
2023-01-13T05:43:35.007Z,95.48
2023-01-13T05:46:03.171Z,95.25
2023-01-13T05:48:35.098Z,96.25
2023-01-13T05:51:03.313Z,96.79
2023-01-13T05:53:30.373Z,97.01
2023-01-13T05:55:57.156Z,96.79
2023-01-13T05:58:25.807Z,96.65
2023-01-13T06:00:53.053Z,97.34
2023-01-13T06:03:20.311Z,97.08
2023-01-13T06:05:47.820Z,96.39
2023-01-13T06:08:14.785Z,96.44
2023-01-13T06:10:41.820Z,96.54
2023-01-13T06:13:08.528Z,96.23
2023-01-13T06:15:35.337Z,95.95
2023-01-13T06:18:03.945Z,96.63
2023-01-13T06:20:30.840Z,96.35
2023-01-13T06:22:58.189Z,95.65
2023-01-13T06:25:49.346Z,95.85
2023-01-13T06:28:16.019Z,96.12
2023-01-13T06:30:46.914Z,96.13
2023-01-13T06:33:20.628Z,95.84
2023-01-13T06:35:55.697Z,95.44
2023-01-13T06:38:23.499Z,95.52
2023-01-13T06:40:50.503Z,95.15
2023-01-13T06:43:17.885Z,95.84
2023-01-13T06:45:53.152Z,94.97
2023-01-13T06:48:35.277Z,94.38
2023-01-13T06:51:03.746Z,94.75
2023-01-13T06:53:30.598Z,94.12
2023-01-13T06:55:57.411Z,94.46
2023-01-13T06:58:24.228Z,94.44
2023-01-13T07:00:51.655Z,94.22
2023-01-13T07:03:19.678Z,93.61
2023-01-13T07:05:54.246Z,93.78
2023-01-13T07:08:22.008Z,93.29
2023-01-13T07:10:48.781Z,92.27
2023-01-13T07:13:34.221Z,92.19
2023-01-13T07:16:03.041Z,91.59
2023-01-13T07:18:32.174Z,92.34
2023-01-13T07:21:05.165Z,91.93
2023-01-13T07:23:35.399Z,92.08
2023-01-13T07:26:02.662Z,91.78
2023-01-13T07:28:30.208Z,92.00
2023-01-13T07:30:57.829Z,94.54
2023-01-13T07:33:24.696Z,93.90
2023-01-13T07:36:02.858Z,94.66
2023-01-13T07:38:30.646Z,95.11
2023-01-13T07:40:57.456Z,95.96
2023-01-13T07:43:33.378Z,94.23
2023-01-13T07:46:05.100Z,95.04
2023-01-13T07:48:33.942Z,95.40
2023-01-13T07:51:08.783Z,95.16
2023-01-13T07:53:35.901Z,95.04
2023-01-13T07:56:04.737Z,94.56
2023-01-13T07:58:33.249Z,95.63
2023-01-13T08:01:00.192Z,95.28
2023-01-13T08:03:27.335Z,93.88
2023-01-13T08:05:54.108Z,94.38
2023-01-13T08:08:20.954Z,93.52
2023-01-13T08:10:47.846Z,94.27
2023-01-13T08:13:22.833Z,93.85
2023-01-13T08:15:54.316Z,94.49
2023-01-13T08:18:22.483Z,94.99
2023-01-13T08:20:52.352Z,94.22
2023-01-13T08:23:23.195Z,94.46
2023-01-13T08:25:50.582Z,94.47
2023-01-13T08:28:17.731Z,93.78
2023-01-13T08:30:44.623Z,94.63
2023-01-13T08:33:12.698Z,94.84
2023-01-13T08:35:40.903Z,93.95
2023-01-13T08:38:09.056Z,94.15
2023-01-13T08:40:36.026Z,94.24
2023-01-13T08:43:03.061Z,93.99
2023-01-13T08:45:29.879Z,93.78
2023-01-13T08:47:56.745Z,93.73
2023-01-13T08:50:23.808Z,93.36
2023-01-13T08:52:50.709Z,93.56
2023-01-13T08:55:17.534Z,93.39
2023-01-13T08:57:44.625Z,93.14
2023-01-13T09:00:12.122Z,93.42
2023-01-13T09:02:39.029Z,92.91
2023-01-13T09:05:07.428Z,92.68
2023-01-13T09:07:35.739Z,92.25
2023-01-13T09:10:03.020Z,92.34
2023-01-13T09:12:48.527Z,92.01
2023-01-13T09:15:18.498Z,91.67
2023-01-13T09:17:45.863Z,91.76
2023-01-13T09:20:13.099Z,91.70
2023-01-13T09:22:40.798Z,91.65
2023-01-13T09:25:09.285Z,91.81
2023-01-13T09:27:36.229Z,91.75
2023-01-13T09:30:03.670Z,91.01
2023-01-13T09:32:30.444Z,91.06
2023-01-13T09:35:00.178Z,91.12
2023-01-13T09:37:28.656Z,91.21
2023-01-13T09:39:55.807Z,91.36
2023-01-13T09:43:07.258Z,91.35
2023-01-13T09:45:47.299Z,90.69
2023-01-13T09:48:24.879Z,90.83
2023-01-13T09:50:55.071Z,91.11
2023-01-13T09:53:27.562Z,90.86
2023-01-13T09:55:55.085Z,91.06
2023-01-13T09:58:21.841Z,91.09
2023-01-13T10:01:04.892Z,91.26
2023-01-13T10:03:33.477Z,91.06
2023-01-13T10:06:21.042Z,91.12
2023-01-13T10:08:48.449Z,91.36
2023-01-13T10:11:42.228Z,91.18
2023-01-13T10:14:28.622Z,90.76
2023-01-13T10:17:13.625Z,90.80
2023-01-13T10:19:55.682Z,91.30
2023-01-13T10:22:37.098Z,91.04
2023-01-13T10:25:21.012Z,90.23
2023-01-13T10:27:50.208Z,91.09
2023-01-13T10:30:31.078Z,90.92
2023-01-13T10:33:01.215Z,90.54
2023-01-13T10:36:00.064Z,90.32
2023-01-13T10:38:30.023Z,90.43
2023-01-13T10:41:02.424Z,90.50
2023-01-13T10:43:29.965Z,89.94
2023-01-13T10:46:05.891Z,89.98
2023-01-13T10:48:41.939Z,89.86
2023-01-13T10:51:17.816Z,89.79
2023-01-13T10:54:14.599Z,89.29
2023-01-13T10:56:43.885Z,89.35
2023-01-13T10:59:17.005Z,89.06
2023-01-13T11:01:56.042Z,88.95
2023-01-13T11:04:32.152Z,88.81
2023-01-13T11:06:59.743Z,88.44
2023-01-13T11:09:27.501Z,88.40
2023-01-13T11:11:57.770Z,88.13
2023-01-13T11:14:33.465Z,87.68
2023-01-13T11:17:20.765Z,87.77
2023-01-13T11:20:20.892Z,87.70
2023-01-13T11:22:53.112Z,88.25
2023-01-13T11:25:32.835Z,87.91
2023-01-13T11:28:26.868Z,87.67
2023-01-13T11:31:02.093Z,87.38
2023-01-13T11:33:38.025Z,87.69
2023-01-13T11:36:08.180Z,87.21
2023-01-13T11:38:43.438Z,87.38
2023-01-13T11:41:17.153Z,87.50
2023-01-13T11:43:50.669Z,86.70
2023-01-13T11:46:17.637Z,86.05
2023-01-13T11:48:44.387Z,86.12
2023-01-13T11:51:14.146Z,85.91
2023-01-13T11:53:59.311Z,86.14
2023-01-13T11:57:18.626Z,86.30
2023-01-13T12:00:11.320Z,86.04
2023-01-13T12:03:23.220Z,85.87
2023-01-13T12:06:03.586Z,86.19
2023-01-13T12:09:11.810Z,86.00
2023-01-13T12:12:23.389Z,86.28
2023-01-13T12:15:25.763Z,86.54
2023-01-13T12:18:30.076Z,86.91
2023-01-13T12:21:01.002Z,86.54
2023-01-13T12:23:32.766Z,85.94
2023-01-13T12:26:08.654Z,86.00
2023-01-13T12:29:07.318Z,86.45
2023-01-13T12:31:37.084Z,86.01
2023-01-13T12:34:20.488Z,85.85
2023-01-13T12:37:16.089Z,85.42
2023-01-13T12:40:01.044Z,85.98
2023-01-13T12:43:04.973Z,85.60
2023-01-13T12:45:33.433Z,84.99
2023-01-13T12:48:00.748Z,85.37
2023-01-13T12:50:27.583Z,85.53
2023-01-13T12:53:30.987Z,85.58
2023-01-13T12:56:20.689Z,84.41
2023-01-13T12:58:47.484Z,84.58
2023-01-13T13:01:15.035Z,84.43
2023-01-13T13:03:42.259Z,83.45
2023-01-13T13:06:22.459Z,83.85
2023-01-13T13:09:13.938Z,84.58
2023-01-13T13:11:59.456Z,84.44
2023-01-13T13:14:49.510Z,83.79
2023-01-13T13:17:28.555Z,84.13
2023-01-13T13:19:59.793Z,84.93
2023-01-13T13:22:26.564Z,83.66
2023-01-13T13:24:56.385Z,83.04
2023-01-13T13:27:38.666Z,83.39
2023-01-13T13:30:37.861Z,82.60
2023-01-13T13:33:13.850Z,82.93
2023-01-13T13:35:56.140Z,83.02
2023-01-13T13:39:07.275Z,81.82
2023-01-13T13:41:54.671Z,81.77
2023-01-13T13:44:58.184Z,82.03
2023-01-13T13:47:25.183Z,82.60
2023-01-13T13:49:54.532Z,82.09
2023-01-13T13:52:26.708Z,81.60
2023-01-13T13:54:57.844Z,82.14
2023-01-13T13:57:39.515Z,82.71
2023-01-13T14:00:23.117Z,82.11
2023-01-13T14:03:01.844Z,82.04
2023-01-13T14:05:36.800Z,81.61
2023-01-13T14:08:23.868Z,81.27
2023-01-13T14:10:50.810Z,81.61
2023-01-13T14:13:26.413Z,81.83
2023-01-13T14:15:56.814Z,82.42
2023-01-13T14:18:23.933Z,81.75
2023-01-13T14:20:54.614Z,81.77
2023-01-13T14:23:26.456Z,82.95
2023-01-13T14:25:54.019Z,83.95
2023-01-13T14:28:27.023Z,83.95
2023-01-13T14:30:54.843Z,84.06
2023-01-13T14:33:38.857Z,84.55
2023-01-13T14:36:12.483Z,84.06
2023-01-13T14:38:39.480Z,83.71
2023-01-13T14:41:13.711Z,84.56
2023-01-13T14:43:48.168Z,84.31
2023-01-13T14:49:06.108Z,83.65
2023-01-13T14:51:32.928Z,83.11
2023-01-13T14:53:59.914Z,82.41
2023-01-13T14:56:42.695Z,82.00
2023-01-13T14:59:31.253Z,82.54
2023-01-13T15:01:58.556Z,81.57
2023-01-13T15:04:27.438Z,81.98
2023-01-13T15:06:56.222Z,81.82
2023-01-13T15:09:25.815Z,81.46
2023-01-13T15:11:54.306Z,81.54
2023-01-13T15:14:26.914Z,81.47
2023-01-13T15:16:53.700Z,81.26
2023-01-13T15:19:20.480Z,81.56
2023-01-13T15:21:47.333Z,81.52
2023-01-13T15:24:14.092Z,82.21
2023-01-13T15:26:41.000Z,80.93
2023-01-13T15:29:15.179Z,81.05
2023-01-13T15:31:42.439Z,82.21
2023-01-13T15:34:09.217Z,81.63
2023-01-13T15:36:37.543Z,82.17
2023-01-13T15:39:04.765Z,82.14
2023-01-13T15:41:50.260Z,82.83
2023-01-13T15:44:36.106Z,83.12
2023-01-13T15:47:06.390Z,82.95
2023-01-13T15:49:43.125Z,82.30
2023-01-13T15:52:21.504Z,82.32
2023-01-13T15:54:48.886Z,82.83
2023-01-13T15:57:27.444Z,83.24
2023-01-13T16:00:01.016Z,83.21
2023-01-13T16:02:29.848Z,83.20
2023-01-13T16:04:57.077Z,83.53
2023-01-13T16:07:25.046Z,83.53
2023-01-13T16:09:52.470Z,83.06
2023-01-13T16:12:19.319Z,83.85
2023-01-13T16:14:46.256Z,83.40
2023-01-13T16:17:19.204Z,84.96
2023-01-13T16:19:46.537Z,85.61
2023-01-13T16:22:15.198Z,85.86
2023-01-13T16:24:42.516Z,86.03
2023-01-13T16:27:24.408Z,85.91
2023-01-13T16:29:52.176Z,84.29
2023-01-13T16:32:20.933Z,84.30
2023-01-13T16:34:48.165Z,84.37
2023-01-13T16:37:24.565Z,84.73
2023-01-13T16:39:53.090Z,85.44
2023-01-13T16:42:20.581Z,84.88
2023-01-13T16:44:48.567Z,84.21
2023-01-13T16:47:16.698Z,83.89
2023-01-13T16:49:43.823Z,82.54
2023-01-13T16:52:10.859Z,81.94
2023-01-13T16:54:37.850Z,81.48
2023-01-13T16:57:06.264Z,81.60
2023-01-13T16:59:33.415Z,82.28
2023-01-13T17:02:02.140Z,82.53
2023-01-13T17:04:29.150Z,82.36
2023-01-13T17:07:04.661Z,81.85
2023-01-13T17:09:31.759Z,82.71
2023-01-13T17:11:58.944Z,82.83
2023-01-13T17:14:26.565Z,82.84
2023-01-13T17:16:57.207Z,82.44
2023-01-13T17:19:24.632Z,81.91
2023-01-13T17:21:51.401Z,81.73
2023-01-13T17:24:18.608Z,81.26
2023-01-13T17:26:50.659Z,81.62
2023-01-13T17:29:23.211Z,81.88
2023-01-13T17:31:51.000Z,82.36
2023-01-13T17:34:18.702Z,82.29
2023-01-13T17:36:45.961Z,82.56
2023-01-13T17:39:18.025Z,82.86
2023-01-13T17:41:45.632Z,83.23
2023-01-13T17:44:16.932Z,84.55
2023-01-13T17:46:44.407Z,84.32
2023-01-13T17:49:13.309Z,84.38
2023-01-13T17:51:40.255Z,85.87
2023-01-13T17:54:07.376Z,85.88
2023-01-13T17:56:34.196Z,85.44
2023-01-13T17:59:00.961Z,85.53
2023-01-13T18:01:30.895Z,85.77
2023-01-13T18:03:57.914Z,85.68
2023-01-13T18:06:24.880Z,85.77
2023-01-13T18:08:52.240Z,85.65
2023-01-13T18:11:20.828Z,83.91
2023-01-13T18:14:00.340Z,82.94
2023-01-13T18:16:30.215Z,85.13
2023-01-13T18:19:36.271Z,83.79
2023-01-13T18:22:21.558Z,84.63
2023-01-13T18:25:07.103Z,83.91
2023-01-13T18:27:36.103Z,83.69
2023-01-13T18:30:03.724Z,83.41
2023-01-13T18:32:33.050Z,83.76
2023-01-13T18:35:06.798Z,84.26
2023-01-13T18:37:38.741Z,84.41
2023-01-13T18:40:07.375Z,86.35
2023-01-13T18:42:53.605Z,86.73
2023-01-13T18:45:25.769Z,86.27
2023-01-13T18:47:54.755Z,86.60
2023-01-13T18:50:22.517Z,86.29
2023-01-13T18:52:49.553Z,86.73
2023-01-13T18:55:16.405Z,86.81
2023-01-13T18:57:43.547Z,83.99
2023-01-13T19:00:12.522Z,84.56
2023-01-13T19:02:39.668Z,86.38
2023-01-13T19:05:07.072Z,86.17
2023-01-13T19:07:35.792Z,87.76
2023-01-13T19:10:04.475Z,86.80
2023-01-13T19:12:33.731Z,87.54
2023-01-13T19:15:02.845Z,87.12
2023-01-13T19:17:34.630Z,87.09
2023-01-13T19:20:01.825Z,86.08
2023-01-13T19:22:33.732Z,86.32
2023-01-13T19:25:01.577Z,87.27
2023-01-13T19:27:28.875Z,87.67
2023-01-13T19:30:01.533Z,87.77
2023-01-13T19:32:30.920Z,88.81
2023-01-13T19:34:59.582Z,88.57
2023-01-13T19:37:34.347Z,88.87
2023-01-13T19:40:01.383Z,88.90
2023-01-13T19:42:46.736Z,88.75
2023-01-13T19:45:27.453Z,87.74
2023-01-13T19:47:55.454Z,88.25
2023-01-13T19:50:22.360Z,85.02
2023-01-13T19:52:49.188Z,85.82
2023-01-13T19:55:16.037Z,86.28
2023-01-13T19:57:43.543Z,86.49
2023-01-13T20:00:11.902Z,88.52
2023-01-13T20:02:47.973Z,88.93
2023-01-13T20:05:21.263Z,88.91
2023-01-13T20:07:49.223Z,89.02
2023-01-13T20:10:17.886Z,87.96
2023-01-13T20:12:45.346Z,86.90
2023-01-13T20:15:14.618Z,87.84
2023-01-13T20:17:42.054Z,86.80
2023-01-13T20:20:10.495Z,87.22
2023-01-13T20:22:38.903Z,87.62
2023-01-13T20:25:06.311Z,87.95
2023-01-13T20:27:33.174Z,87.37
2023-01-13T20:29:59.970Z,87.69
2023-01-13T20:32:26.769Z,88.06
2023-01-13T20:34:53.566Z,88.81
2023-01-13T20:37:20.402Z,88.32
2023-01-13T20:39:48.239Z,88.15
2023-01-13T20:42:30.082Z,87.78
2023-01-13T20:45:01.221Z,87.61
2023-01-13T20:47:29.383Z,86.64
2023-01-13T20:49:56.220Z,86.70
2023-01-13T20:52:23.231Z,86.11
2023-01-13T20:54:50.065Z,86.56
2023-01-13T20:57:17.224Z,86.90
2023-01-13T20:59:43.938Z,87.35
2023-01-13T21:02:13.320Z,87.31
2023-01-13T21:04:40.588Z,86.81
2023-01-13T21:07:07.723Z,86.96
2023-01-13T21:09:34.779Z,86.60
2023-01-13T21:12:20.445Z,87.58
2023-01-13T21:15:06.172Z,87.60
2023-01-13T21:17:51.431Z,87.24
2023-01-13T21:20:18.533Z,86.43
2023-01-13T21:22:46.661Z,86.38
2023-01-13T21:25:14.277Z,86.42
2023-01-13T21:27:41.772Z,86.36
2023-01-13T21:30:09.167Z,86.43
2023-01-13T21:32:35.978Z,86.65
2023-01-13T21:35:02.882Z,86.54
2023-01-13T21:37:29.680Z,87.34
2023-01-13T21:39:56.771Z,87.98
2023-01-13T21:42:42.295Z,87.06
2023-01-13T21:45:29.112Z,86.65
2023-01-13T21:47:56.164Z,86.62
2023-01-13T21:50:25.917Z,86.67
2023-01-13T21:52:52.920Z,88.14
2023-01-13T21:55:25.486Z,87.83
2023-01-13T21:58:12.921Z,87.54
2023-01-13T22:00:41.552Z,86.93
2023-01-13T22:03:09.643Z,86.81
2023-01-13T22:05:36.753Z,86.75
2023-01-13T22:08:04.354Z,87.73
2023-01-13T22:10:32.068Z,88.42
2023-01-13T22:13:20.755Z,87.94
2023-01-13T22:15:47.710Z,86.90
2023-01-13T22:18:14.547Z,85.69
2023-01-13T22:20:42.158Z,86.43
2023-01-13T22:23:09.528Z,86.53
2023-01-13T22:25:36.917Z,85.74
2023-01-13T22:28:06.344Z,86.19
2023-01-13T22:30:33.365Z,87.08
2023-01-13T22:33:00.635Z,87.47
2023-01-13T22:35:27.532Z,87.66
2023-01-13T22:37:54.356Z,88.00
2023-01-13T22:40:21.451Z,87.85
2023-01-13T22:42:48.271Z,88.45
2023-01-13T22:45:15.102Z,88.10
2023-01-13T22:47:42.010Z,88.67
2023-01-13T22:50:09.475Z,89.09
2023-01-13T22:52:36.632Z,88.46
2023-01-13T22:55:04.051Z,88.06
2023-01-13T22:57:35.973Z,88.08
2023-01-13T23:00:07.056Z,87.33
2023-01-13T23:02:34.703Z,87.01
2023-01-13T23:05:02.364Z,88.39
2023-01-13T23:07:29.556Z,89.43
2023-01-13T23:09:56.617Z,87.91
2023-01-13T23:12:23.806Z,88.07
2023-01-13T23:14:50.817Z,89.13
2023-01-13T23:17:17.809Z,88.81
2023-01-13T23:19:44.671Z,86.06
2023-01-13T23:22:13.176Z,87.51
2023-01-13T23:24:40.083Z,87.33
2023-01-13T23:27:07.036Z,86.86
2023-01-13T23:29:34.131Z,87.16
2023-01-13T23:32:00.970Z,88.73
2023-01-13T23:34:27.941Z,86.84
2023-01-13T23:36:54.695Z,87.74
2023-01-13T23:39:21.542Z,87.79
2023-01-13T23:41:48.337Z,87.43
2023-01-13T23:44:15.249Z,88.90
2023-01-13T23:46:42.149Z,89.77
2023-01-13T23:49:09.258Z,89.57
2023-01-13T23:51:36.128Z,88.83
2023-01-13T23:54:02.984Z,88.55
2023-01-13T23:56:31.228Z,89.29
2023-01-13T23:58:58.238Z,88.77
